sensor_id;sensor_type;location;lat;lon;timestamp;P1;durP1;ratioP1;P2;durP2;ratioP2
18265;SDS011;9259;48.194;16.322;2022-11-03T00:01:30;16.13;;;4.90;;
18265;SDS011;9259;48.194;16.322;2022-11-03T00:03:58;16.90;;;5.67;;
18265;SDS011;9259;48.194;16.322;2022-11-03T00:06:26;15.73;;;5.23;;
18265;SDS011;9259;48.194;16.322;2022-11-03T00:08:57;12.60;;;5.03;;
18265;SDS011;9259;48.194;16.322;2022-11-03T00:11:26;14.07;;;4.40;;
18265;SDS011;9259;48.194;16.322;2022-11-03T00:13:55;11.10;;;4.33;;
18265;SDS011;9259;48.194;16.322;2022-11-03T00:16:23;15.63;;;4.40;;
18265;SDS011;9259;48.194;16.322;2022-11-03T00:18:52;10.53;;;4.30;;
18265;SDS011;9259;48.194;16.322;2022-11-03T00:21:20;11.13;;;4.13;;
18265;SDS011;9259;48.194;16.322;2022-11-03T00:23:48;17.67;;;4.40;;
18265;SDS011;9259;48.194;16.322;2022-11-03T00:26:18;11.83;;;3.93;;
18265;SDS011;9259;48.194;16.322;2022-11-03T00:28:48;12.43;;;4.43;;
18265;SDS011;9259;48.194;16.322;2022-11-03T00:31:19;11.93;;;4.43;;
18265;SDS011;9259;48.194;16.322;2022-11-03T00:33:48;8.27;;;3.67;;
18265;SDS011;9259;48.194;16.322;2022-11-03T00:36:17;11.97;;;4.30;;
18265;SDS011;9259;48.194;16.322;2022-11-03T00:38:46;10.83;;;3.60;;
18265;SDS011;9259;48.194;16.322;2022-11-03T00:41:14;11.77;;;4.77;;
18265;SDS011;9259;48.194;16.322;2022-11-03T00:43:44;9.53;;;4.93;;
18265;SDS011;9259;48.194;16.322;2022-11-03T00:46:12;12.07;;;4.57;;
18265;SDS011;9259;48.194;16.322;2022-11-03T00:48:41;11.13;;;5.13;;
18265;SDS011;9259;48.194;16.322;2022-11-03T00:51:09;19.57;;;6.00;;
18265;SDS011;9259;48.194;16.322;2022-11-03T00:53:39;17.70;;;5.60;;
18265;SDS011;9259;48.194;16.322;2022-11-03T00:56:09;18.93;;;6.07;;
18265;SDS011;9259;48.194;16.322;2022-11-03T00:58:41;17.10;;;5.70;;
18265;SDS011;9259;48.194;16.322;2022-11-03T01:01:11;14.53;;;5.70;;
18265;SDS011;9259;48.194;16.322;2022-11-03T01:03:42;13.27;;;5.67;;
18265;SDS011;9259;48.194;16.322;2022-11-03T01:06:31;13.07;;;5.87;;
18265;SDS011;9259;48.194;16.322;2022-11-03T01:09:14;17.90;;;7.07;;
18265;SDS011;9259;48.194;16.322;2022-11-03T01:11:43;14.63;;;6.03;;
18265;SDS011;9259;48.194;16.322;2022-11-03T01:14:20;14.93;;;5.60;;
18265;SDS011;9259;48.194;16.322;2022-11-03T01:16:48;15.10;;;5.50;;
18265;SDS011;9259;48.194;16.322;2022-11-03T01:19:16;17.53;;;5.43;;
18265;SDS011;9259;48.194;16.322;2022-11-03T01:21:44;11.07;;;5.03;;
18265;SDS011;9259;48.194;16.322;2022-11-03T01:24:14;9.80;;;4.83;;
18265;SDS011;9259;48.194;16.322;2022-11-03T01:26:42;9.57;;;5.10;;
18265;SDS011;9259;48.194;16.322;2022-11-03T01:29:10;17.17;;;5.23;;
18265;SDS011;9259;48.194;16.322;2022-11-03T01:31:39;14.53;;;4.20;;
18265;SDS011;9259;48.194;16.322;2022-11-03T01:34:08;11.07;;;4.40;;
18265;SDS011;9259;48.194;16.322;2022-11-03T01:36:40;14.97;;;4.13;;
18265;SDS011;9259;48.194;16.322;2022-11-03T01:39:09;13.77;;;5.10;;
18265;SDS011;9259;48.194;16.322;2022-11-03T01:41:37;11.27;;;4.40;;
18265;SDS011;9259;48.194;16.322;2022-11-03T01:47:03;13.10;;;4.07;;
18265;SDS011;9259;48.194;16.322;2022-11-03T01:49:37;12.00;;;4.07;;
18265;SDS011;9259;48.194;16.322;2022-11-03T01:52:08;11.87;;;4.20;;
18265;SDS011;9259;48.194;16.322;2022-11-03T01:54:39;11.67;;;4.07;;
18265;SDS011;9259;48.194;16.322;2022-11-03T01:57:10;9.63;;;4.23;;
18265;SDS011;9259;48.194;16.322;2022-11-03T01:59:40;12.47;;;4.13;;
18265;SDS011;9259;48.194;16.322;2022-11-03T02:02:10;10.23;;;4.20;;
18265;SDS011;9259;48.194;16.322;2022-11-03T02:04:38;14.07;;;3.80;;
18265;SDS011;9259;48.194;16.322;2022-11-03T02:07:09;11.37;;;4.00;;
18265;SDS011;9259;48.194;16.322;2022-11-03T02:09:40;9.20;;;4.20;;
18265;SDS011;9259;48.194;16.322;2022-11-03T02:12:08;11.20;;;4.00;;
18265;SDS011;9259;48.194;16.322;2022-11-03T02:14:37;8.53;;;3.70;;
18265;SDS011;9259;48.194;16.322;2022-11-03T02:17:11;14.23;;;4.17;;
18265;SDS011;9259;48.194;16.322;2022-11-03T02:19:40;13.63;;;3.80;;
18265;SDS011;9259;48.194;16.322;2022-11-03T02:25:05;12.20;;;4.10;;
18265;SDS011;9259;48.194;16.322;2022-11-03T02:27:41;12.07;;;4.23;;
18265;SDS011;9259;48.194;16.322;2022-11-03T02:30:09;10.13;;;3.27;;
18265;SDS011;9259;48.194;16.322;2022-11-03T02:32:40;13.20;;;3.27;;
18265;SDS011;9259;48.194;16.322;2022-11-03T02:35:16;15.80;;;3.77;;
18265;SDS011;9259;48.194;16.322;2022-11-03T02:37:48;8.10;;;3.60;;
18265;SDS011;9259;48.194;16.322;2022-11-03T02:40:21;9.13;;;3.50;;
18265;SDS011;9259;48.194;16.322;2022-11-03T02:42:53;10.70;;;3.20;;
18265;SDS011;9259;48.194;16.322;2022-11-03T02:45:22;7.67;;;3.33;;
18265;SDS011;9259;48.194;16.322;2022-11-03T02:47:52;9.80;;;3.70;;
18265;SDS011;9259;48.194;16.322;2022-11-03T02:50:25;11.40;;;3.97;;
18265;SDS011;9259;48.194;16.322;2022-11-03T02:52:54;15.47;;;4.40;;
18265;SDS011;9259;48.194;16.322;2022-11-03T02:55:24;12.53;;;3.83;;
18265;SDS011;9259;48.194;16.322;2022-11-03T02:58:02;9.20;;;3.37;;
18265;SDS011;9259;48.194;16.322;2022-11-03T03:00:35;9.40;;;3.40;;
18265;SDS011;9259;48.194;16.322;2022-11-03T03:03:08;10.33;;;3.53;;
18265;SDS011;9259;48.194;16.322;2022-11-03T03:05:37;10.50;;;3.33;;
18265;SDS011;9259;48.194;16.322;2022-11-03T03:08:09;15.13;;;4.03;;
18265;SDS011;9259;48.194;16.322;2022-11-03T03:10:38;13.70;;;4.00;;
18265;SDS011;9259;48.194;16.322;2022-11-03T03:13:08;8.30;;;3.17;;
18265;SDS011;9259;48.194;16.322;2022-11-03T03:15:39;13.30;;;4.50;;
18265;SDS011;9259;48.194;16.322;2022-11-03T03:18:11;10.67;;;3.90;;
18265;SDS011;9259;48.194;16.322;2022-11-03T03:20:49;10.50;;;3.80;;
18265;SDS011;9259;48.194;16.322;2022-11-03T03:23:21;8.47;;;3.70;;
18265;SDS011;9259;48.194;16.322;2022-11-03T03:25:52;11.13;;;3.53;;
18265;SDS011;9259;48.194;16.322;2022-11-03T03:28:25;12.33;;;3.37;;
18265;SDS011;9259;48.194;16.322;2022-11-03T03:30:55;9.90;;;3.20;;
18265;SDS011;9259;48.194;16.322;2022-11-03T03:33:26;8.23;;;3.40;;
18265;SDS011;9259;48.194;16.322;2022-11-03T03:35:54;9.80;;;3.53;;
18265;SDS011;9259;48.194;16.322;2022-11-03T03:38:25;9.43;;;3.60;;
18265;SDS011;9259;48.194;16.322;2022-11-03T03:40:56;8.93;;;3.30;;
18265;SDS011;9259;48.194;16.322;2022-11-03T03:43:28;12.73;;;4.30;;
18265;SDS011;9259;48.194;16.322;2022-11-03T03:45:59;11.57;;;3.43;;
18265;SDS011;9259;48.194;16.322;2022-11-03T03:48:29;11.80;;;3.83;;
18265;SDS011;9259;48.194;16.322;2022-11-03T03:50:57;8.70;;;3.43;;
18265;SDS011;9259;48.194;16.322;2022-11-03T03:53:27;9.10;;;3.63;;
18265;SDS011;9259;48.194;16.322;2022-11-03T03:55:56;9.70;;;3.80;;
18265;SDS011;9259;48.194;16.322;2022-11-03T03:58:24;11.47;;;4.00;;
18265;SDS011;9259;48.194;16.322;2022-11-03T04:00:54;9.60;;;3.60;;
18265;SDS011;9259;48.194;16.322;2022-11-03T04:03:22;12.20;;;3.60;;
18265;SDS011;9259;48.194;16.322;2022-11-03T04:05:52;11.00;;;3.37;;
18265;SDS011;9259;48.194;16.322;2022-11-03T04:08:20;7.27;;;3.37;;
18265;SDS011;9259;48.194;16.322;2022-11-03T04:10:48;10.67;;;3.07;;
18265;SDS011;9259;48.194;16.322;2022-11-03T04:13:34;8.87;;;3.20;;
18265;SDS011;9259;48.194;16.322;2022-11-03T04:16:21;14.10;;;3.43;;
18265;SDS011;9259;48.194;16.322;2022-11-03T04:19:07;8.73;;;3.27;;
18265;SDS011;9259;48.194;16.322;2022-11-03T04:21:54;9.70;;;3.17;;
18265;SDS011;9259;48.194;16.322;2022-11-03T04:24:39;10.73;;;3.70;;
18265;SDS011;9259;48.194;16.322;2022-11-03T04:27:13;9.73;;;3.97;;
18265;SDS011;9259;48.194;16.322;2022-11-03T04:29:54;8.70;;;3.80;;
18265;SDS011;9259;48.194;16.322;2022-11-03T04:32:27;12.33;;;3.57;;
18265;SDS011;9259;48.194;16.322;2022-11-03T04:34:57;7.60;;;3.60;;
18265;SDS011;9259;48.194;16.322;2022-11-03T04:37:25;8.80;;;3.27;;
18265;SDS011;9259;48.194;16.322;2022-11-03T04:39:54;14.33;;;3.87;;
18265;SDS011;9259;48.194;16.322;2022-11-03T04:42:26;8.87;;;3.40;;
18265;SDS011;9259;48.194;16.322;2022-11-03T04:44:57;16.27;;;3.93;;
18265;SDS011;9259;48.194;16.322;2022-11-03T04:47:28;13.83;;;4.00;;
18265;SDS011;9259;48.194;16.322;2022-11-03T04:49:57;12.23;;;4.17;;
18265;SDS011;9259;48.194;16.322;2022-11-03T04:52:25;10.30;;;3.60;;
18265;SDS011;9259;48.194;16.322;2022-11-03T04:54:54;8.33;;;3.63;;
18265;SDS011;9259;48.194;16.322;2022-11-03T04:57:26;9.23;;;3.67;;
18265;SDS011;9259;48.194;16.322;2022-11-03T04:59:55;12.30;;;4.30;;
18265;SDS011;9259;48.194;16.322;2022-11-03T05:02:23;8.40;;;3.77;;
18265;SDS011;9259;48.194;16.322;2022-11-03T05:04:52;11.03;;;4.20;;
18265;SDS011;9259;48.194;16.322;2022-11-03T05:07:22;10.40;;;3.53;;
18265;SDS011;9259;48.194;16.322;2022-11-03T05:09:55;11.13;;;3.57;;
18265;SDS011;9259;48.194;16.322;2022-11-03T05:12:23;8.40;;;3.07;;
18265;SDS011;9259;48.194;16.322;2022-11-03T05:14:51;10.47;;;3.20;;
18265;SDS011;9259;48.194;16.322;2022-11-03T05:17:20;7.83;;;3.70;;
18265;SDS011;9259;48.194;16.322;2022-11-03T05:19:49;12.57;;;3.93;;
18265;SDS011;9259;48.194;16.322;2022-11-03T05:22:21;10.20;;;2.97;;
18265;SDS011;9259;48.194;16.322;2022-11-03T05:24:54;10.63;;;3.23;;
18265;SDS011;9259;48.194;16.322;2022-11-03T05:27:23;9.83;;;3.53;;
18265;SDS011;9259;48.194;16.322;2022-11-03T05:29:52;10.57;;;3.57;;
18265;SDS011;9259;48.194;16.322;2022-11-03T05:32:22;10.90;;;4.10;;
18265;SDS011;9259;48.194;16.322;2022-11-03T05:34:54;10.10;;;3.77;;
18265;SDS011;9259;48.194;16.322;2022-11-03T05:37:26;11.60;;;3.43;;
18265;SDS011;9259;48.194;16.322;2022-11-03T05:39:56;12.93;;;4.53;;
18265;SDS011;9259;48.194;16.322;2022-11-03T05:42:30;13.23;;;3.70;;
18265;SDS011;9259;48.194;16.322;2022-11-03T05:45:00;6.93;;;3.33;;
18265;SDS011;9259;48.194;16.322;2022-11-03T05:47:31;11.83;;;4.43;;
18265;SDS011;9259;48.194;16.322;2022-11-03T05:50:10;9.73;;;3.50;;
18265;SDS011;9259;48.194;16.322;2022-11-03T05:52:43;7.00;;;3.70;;
18265;SDS011;9259;48.194;16.322;2022-11-03T05:55:16;11.73;;;3.90;;
18265;SDS011;9259;48.194;16.322;2022-11-03T05:57:50;8.80;;;4.00;;
18265;SDS011;9259;48.194;16.322;2022-11-03T06:00:24;13.73;;;3.90;;
18265;SDS011;9259;48.194;16.322;2022-11-03T06:02:56;12.90;;;4.40;;
18265;SDS011;9259;48.194;16.322;2022-11-03T06:05:26;10.87;;;4.40;;
18265;SDS011;9259;48.194;16.322;2022-11-03T06:07:56;16.03;;;4.77;;
18265;SDS011;9259;48.194;16.322;2022-11-03T06:10:30;15.63;;;5.17;;
18265;SDS011;9259;48.194;16.322;2022-11-03T06:13:00;12.57;;;5.13;;
18265;SDS011;9259;48.194;16.322;2022-11-03T06:15:31;12.03;;;5.33;;
18265;SDS011;9259;48.194;16.322;2022-11-03T06:18:08;14.67;;;5.07;;
18265;SDS011;9259;48.194;16.322;2022-11-03T06:20:41;11.67;;;4.93;;
18265;SDS011;9259;48.194;16.322;2022-11-03T06:23:10;14.17;;;5.70;;
18265;SDS011;9259;48.194;16.322;2022-11-03T06:25:39;12.90;;;5.60;;
18265;SDS011;9259;48.194;16.322;2022-11-03T06:28:09;18.23;;;5.73;;
18265;SDS011;9259;48.194;16.322;2022-11-03T06:30:40;12.60;;;5.53;;
18265;SDS011;9259;48.194;16.322;2022-11-03T06:33:12;19.07;;;5.73;;
18265;SDS011;9259;48.194;16.322;2022-11-03T06:35:43;14.60;;;5.90;;
18265;SDS011;9259;48.194;16.322;2022-11-03T06:38:13;17.57;;;5.43;;
18265;SDS011;9259;48.194;16.322;2022-11-03T06:40:44;20.27;;;6.10;;
18265;SDS011;9259;48.194;16.322;2022-11-03T06:43:15;12.10;;;5.47;;
18265;SDS011;9259;48.194;16.322;2022-11-03T06:45:50;14.17;;;5.40;;
18265;SDS011;9259;48.194;16.322;2022-11-03T06:48:21;16.57;;;6.07;;
18265;SDS011;9259;48.194;16.322;2022-11-03T06:50:52;14.40;;;5.40;;
18265;SDS011;9259;48.194;16.322;2022-11-03T06:53:22;13.17;;;5.90;;
18265;SDS011;9259;48.194;16.322;2022-11-03T06:55:52;14.73;;;5.17;;
18265;SDS011;9259;48.194;16.322;2022-11-03T06:58:24;17.57;;;4.90;;
18265;SDS011;9259;48.194;16.322;2022-11-03T07:00:55;11.97;;;5.37;;
18265;SDS011;9259;48.194;16.322;2022-11-03T07:03:25;12.23;;;4.13;;
18265;SDS011;9259;48.194;16.322;2022-11-03T07:05:58;15.30;;;4.77;;
18265;SDS011;9259;48.194;16.322;2022-11-03T07:08:29;15.73;;;5.00;;
18265;SDS011;9259;48.194;16.322;2022-11-03T07:11:02;18.60;;;4.80;;
18265;SDS011;9259;48.194;16.322;2022-11-03T07:13:33;14.17;;;4.60;;
18265;SDS011;9259;48.194;16.322;2022-11-03T07:16:01;12.53;;;4.40;;
18265;SDS011;9259;48.194;16.322;2022-11-03T07:18:30;15.40;;;4.50;;
18265;SDS011;9259;48.194;16.322;2022-11-03T07:21:04;12.23;;;3.93;;
18265;SDS011;9259;48.194;16.322;2022-11-03T07:23:33;17.40;;;3.80;;
18265;SDS011;9259;48.194;16.322;2022-11-03T07:26:01;12.77;;;3.53;;
18265;SDS011;9259;48.194;16.322;2022-11-03T07:28:32;10.53;;;3.40;;
18265;SDS011;9259;48.194;16.322;2022-11-03T07:31:01;10.47;;;3.87;;
18265;SDS011;9259;48.194;16.322;2022-11-03T07:33:54;10.00;;;3.03;;
18265;SDS011;9259;48.194;16.322;2022-11-03T07:36:26;14.30;;;4.03;;
18265;SDS011;9259;48.194;16.322;2022-11-03T07:38:55;10.03;;;3.37;;
18265;SDS011;9259;48.194;16.322;2022-11-03T07:41:25;10.13;;;3.10;;
18265;SDS011;9259;48.194;16.322;2022-11-03T07:43:55;9.80;;;3.30;;
18265;SDS011;9259;48.194;16.322;2022-11-03T07:46:24;11.27;;;4.23;;
18265;SDS011;9259;48.194;16.322;2022-11-03T07:48:53;8.27;;;3.03;;
18265;SDS011;9259;48.194;16.322;2022-11-03T07:51:23;14.10;;;3.83;;
18265;SDS011;9259;48.194;16.322;2022-11-03T07:53:55;11.17;;;3.37;;
18265;SDS011;9259;48.194;16.322;2022-11-03T07:56:25;15.67;;;4.03;;
18265;SDS011;9259;48.194;16.322;2022-11-03T07:58:54;9.80;;;3.40;;
18265;SDS011;9259;48.194;16.322;2022-11-03T08:01:26;11.30;;;3.30;;
18265;SDS011;9259;48.194;16.322;2022-11-03T08:03:59;8.50;;;3.57;;
18265;SDS011;9259;48.194;16.322;2022-11-03T08:06:31;8.67;;;3.20;;
18265;SDS011;9259;48.194;16.322;2022-11-03T08:08:59;12.20;;;3.23;;
18265;SDS011;9259;48.194;16.322;2022-11-03T08:11:27;11.60;;;3.53;;
18265;SDS011;9259;48.194;16.322;2022-11-03T08:13:55;11.23;;;3.60;;
18265;SDS011;9259;48.194;16.322;2022-11-03T08:16:24;12.18;;;3.58;;
18265;SDS011;9259;48.194;16.322;2022-11-03T08:18:52;13.45;;;4.28;;
18265;SDS011;9259;48.194;16.322;2022-11-03T08:21:20;12.88;;;3.55;;
18265;SDS011;9259;48.194;16.322;2022-11-03T08:23:49;7.13;;;3.10;;
18265;SDS011;9259;48.194;16.322;2022-11-03T08:26:18;8.65;;;3.28;;
18265;SDS011;9259;48.194;16.322;2022-11-03T08:28:46;9.77;;;3.38;;
18265;SDS011;9259;48.194;16.322;2022-11-03T08:31:14;9.07;;;3.25;;
18265;SDS011;9259;48.194;16.322;2022-11-03T08:33:42;10.35;;;2.80;;
18265;SDS011;9259;48.194;16.322;2022-11-03T08:36:10;8.95;;;3.25;;
18265;SDS011;9259;48.194;16.322;2022-11-03T08:38:38;9.23;;;3.50;;
18265;SDS011;9259;48.194;16.322;2022-11-03T08:41:08;15.18;;;3.92;;
18265;SDS011;9259;48.194;16.322;2022-11-03T08:43:36;13.18;;;3.67;;
18265;SDS011;9259;48.194;16.322;2022-11-03T08:46:04;12.82;;;3.45;;
18265;SDS011;9259;48.194;16.322;2022-11-03T08:48:32;13.23;;;3.60;;
18265;SDS011;9259;48.194;16.322;2022-11-03T08:51:00;13.95;;;3.47;;
18265;SDS011;9259;48.194;16.322;2022-11-03T08:53:29;12.20;;;3.35;;
18265;SDS011;9259;48.194;16.322;2022-11-03T08:55:58;11.32;;;3.47;;
18265;SDS011;9259;48.194;16.322;2022-11-03T08:58:28;10.13;;;3.55;;
18265;SDS011;9259;48.194;16.322;2022-11-03T09:00:56;12.30;;;3.47;;
18265;SDS011;9259;48.194;16.322;2022-11-03T09:03:24;15.30;;;3.65;;
18265;SDS011;9259;48.194;16.322;2022-11-03T09:05:52;8.98;;;3.72;;
18265;SDS011;9259;48.194;16.322;2022-11-03T09:08:20;10.88;;;2.83;;
18265;SDS011;9259;48.194;16.322;2022-11-03T09:10:48;8.32;;;2.53;;
18265;SDS011;9259;48.194;16.322;2022-11-03T09:13:16;8.93;;;2.42;;
18265;SDS011;9259;48.194;16.322;2022-11-03T09:15:46;7.88;;;2.10;;
18265;SDS011;9259;48.194;16.322;2022-11-03T09:18:14;13.50;;;2.78;;
18265;SDS011;9259;48.194;16.322;2022-11-03T09:20:42;11.80;;;2.70;;
18265;SDS011;9259;48.194;16.322;2022-11-03T09:23:10;9.63;;;2.72;;
18265;SDS011;9259;48.194;16.322;2022-11-03T09:25:38;9.45;;;2.75;;
18265;SDS011;9259;48.194;16.322;2022-11-03T09:28:06;8.88;;;2.28;;
18265;SDS011;9259;48.194;16.322;2022-11-03T09:30:34;9.75;;;2.40;;
18265;SDS011;9259;48.194;16.322;2022-11-03T09:33:04;10.15;;;2.50;;
18265;SDS011;9259;48.194;16.322;2022-11-03T09:35:32;7.85;;;1.85;;
18265;SDS011;9259;48.194;16.322;2022-11-03T09:38:00;10.15;;;2.55;;
18265;SDS011;9259;48.194;16.322;2022-11-03T09:40:28;8.00;;;2.20;;
18265;SDS011;9259;48.194;16.322;2022-11-03T09:42:56;7.70;;;2.42;;
18265;SDS011;9259;48.194;16.322;2022-11-03T09:45:24;11.05;;;2.55;;
18265;SDS011;9259;48.194;16.322;2022-11-03T09:47:52;8.30;;;2.10;;
18265;SDS011;9259;48.194;16.322;2022-11-03T09:50:22;7.47;;;2.08;;
18265;SDS011;9259;48.194;16.322;2022-11-03T09:52:50;8.63;;;2.20;;
18265;SDS011;9259;48.194;16.322;2022-11-03T09:55:20;9.48;;;2.38;;
18265;SDS011;9259;48.194;16.322;2022-11-03T09:57:51;13.90;;;1.98;;
18265;SDS011;9259;48.194;16.322;2022-11-03T10:00:19;9.48;;;2.45;;
18265;SDS011;9259;48.194;16.322;2022-11-03T10:02:49;7.63;;;1.50;;
18265;SDS011;9259;48.194;16.322;2022-11-03T10:05:18;8.05;;;2.17;;
18265;SDS011;9259;48.194;16.322;2022-11-03T10:07:50;7.63;;;1.98;;
18265;SDS011;9259;48.194;16.322;2022-11-03T10:10:20;6.47;;;2.20;;
18265;SDS011;9259;48.194;16.322;2022-11-03T10:12:49;9.90;;;2.08;;
18265;SDS011;9259;48.194;16.322;2022-11-03T10:15:18;12.85;;;2.45;;
18265;SDS011;9259;48.194;16.322;2022-11-03T10:17:47;7.82;;;2.10;;
18265;SDS011;9259;48.194;16.322;2022-11-03T10:20:16;9.38;;;2.33;;
18265;SDS011;9259;48.194;16.322;2022-11-03T10:22:50;7.30;;;1.98;;
18265;SDS011;9259;48.194;16.322;2022-11-03T10:25:28;9.65;;;2.33;;
18265;SDS011;9259;48.194;16.322;2022-11-03T10:28:12;8.43;;;2.38;;
18265;SDS011;9259;48.194;16.322;2022-11-03T10:30:48;4.25;;;1.80;;
18265;SDS011;9259;48.194;16.322;2022-11-03T10:33:27;7.70;;;1.75;;
18265;SDS011;9259;48.194;16.322;2022-11-03T10:35:56;11.32;;;2.50;;
18265;SDS011;9259;48.194;16.322;2022-11-03T10:38:27;6.28;;;2.03;;
18265;SDS011;9259;48.194;16.322;2022-11-03T10:41:08;7.30;;;2.45;;
18265;SDS011;9259;48.194;16.322;2022-11-03T10:43:37;12.20;;;2.72;;
18265;SDS011;9259;48.194;16.322;2022-11-03T10:46:08;11.15;;;2.25;;
18265;SDS011;9259;48.194;16.322;2022-11-03T10:48:38;9.80;;;2.05;;
18265;SDS011;9259;48.194;16.322;2022-11-03T10:51:08;9.65;;;1.83;;
18265;SDS011;9259;48.194;16.322;2022-11-03T10:53:39;8.07;;;2.05;;
18265;SDS011;9259;48.194;16.322;2022-11-03T10:56:08;10.38;;;2.10;;
18265;SDS011;9259;48.194;16.322;2022-11-03T10:58:37;7.03;;;2.28;;
18265;SDS011;9259;48.194;16.322;2022-11-03T11:01:07;8.45;;;2.20;;
18265;SDS011;9259;48.194;16.322;2022-11-03T11:03:38;10.00;;;2.15;;
18265;SDS011;9259;48.194;16.322;2022-11-03T11:06:15;5.43;;;1.88;;
18265;SDS011;9259;48.194;16.322;2022-11-03T11:08:45;6.70;;;2.40;;
18265;SDS011;9259;48.194;16.322;2022-11-03T11:11:14;7.05;;;2.28;;
18265;SDS011;9259;48.194;16.322;2022-11-03T11:13:42;8.88;;;2.35;;
18265;SDS011;9259;48.194;16.322;2022-11-03T11:19:15;10.30;;;2.22;;
18265;SDS011;9259;48.194;16.322;2022-11-03T11:21:57;10.20;;;2.17;;
18265;SDS011;9259;48.194;16.322;2022-11-03T11:33:49;7.60;;;2.28;;
18265;SDS011;9259;48.194;16.322;2022-11-03T11:36:19;6.93;;;2.38;;
18265;SDS011;9259;48.194;16.322;2022-11-03T11:38:58;10.00;;;2.22;;
18265;SDS011;9259;48.194;16.322;2022-11-03T11:44:47;8.30;;;2.35;;
18265;SDS011;9259;48.194;16.322;2022-11-03T11:47:21;10.32;;;2.58;;
18265;SDS011;9259;48.194;16.322;2022-11-03T11:50:14;7.15;;;2.28;;
18265;SDS011;9259;48.194;16.322;2022-11-03T11:52:50;5.70;;;1.88;;
18265;SDS011;9259;48.194;16.322;2022-11-03T11:55:25;6.25;;;1.98;;
18265;SDS011;9259;48.194;16.322;2022-11-03T11:58:03;10.02;;;2.25;;
18265;SDS011;9259;48.194;16.322;2022-11-03T12:00:48;8.52;;;2.97;;
18265;SDS011;9259;48.194;16.322;2022-11-03T12:03:18;4.18;;;1.67;;
18265;SDS011;9259;48.194;16.322;2022-11-03T12:05:57;6.97;;;1.98;;
18265;SDS011;9259;48.194;16.322;2022-11-03T12:08:26;9.32;;;2.25;;
18265;SDS011;9259;48.194;16.322;2022-11-03T12:10:56;8.00;;;2.28;;
18265;SDS011;9259;48.194;16.322;2022-11-03T12:13:39;7.47;;;2.20;;
18265;SDS011;9259;48.194;16.322;2022-11-03T12:16:28;11.80;;;2.50;;
18265;SDS011;9259;48.194;16.322;2022-11-03T12:22:03;7.10;;;2.28;;
18265;SDS011;9259;48.194;16.322;2022-11-03T12:24:37;8.00;;;2.40;;
18265;SDS011;9259;48.194;16.322;2022-11-03T12:27:17;10.48;;;2.67;;
18265;SDS011;9259;48.194;16.322;2022-11-03T12:30:02;6.90;;;2.33;;
18265;SDS011;9259;48.194;16.322;2022-11-03T12:32:33;8.48;;;2.70;;
18265;SDS011;9259;48.194;16.322;2022-11-03T12:35:01;6.55;;;2.20;;
18265;SDS011;9259;48.194;16.322;2022-11-03T12:37:30;9.55;;;2.80;;
18265;SDS011;9259;48.194;16.322;2022-11-03T12:39:58;4.50;;;2.60;;
18265;SDS011;9259;48.194;16.322;2022-11-03T12:42:26;11.73;;;2.72;;
18265;SDS011;9259;48.194;16.322;2022-11-03T12:44:54;7.40;;;2.92;;
18265;SDS011;9259;48.194;16.322;2022-11-03T12:47:24;9.45;;;3.08;;
18265;SDS011;9259;48.194;16.322;2022-11-03T12:49:52;11.20;;;3.25;;
18265;SDS011;9259;48.194;16.322;2022-11-03T12:52:20;16.15;;;3.22;;
18265;SDS011;9259;48.194;16.322;2022-11-03T12:54:48;8.70;;;2.72;;
18265;SDS011;9259;48.194;16.322;2022-11-03T12:57:16;9.50;;;3.92;;
18265;SDS011;9259;48.194;16.322;2022-11-03T12:59:44;9.63;;;3.55;;
18265;SDS011;9259;48.194;16.322;2022-11-03T13:02:12;11.02;;;3.08;;
18265;SDS011;9259;48.194;16.322;2022-11-03T13:04:42;6.85;;;3.20;;
18265;SDS011;9259;48.194;16.322;2022-11-03T13:07:10;8.02;;;2.97;;
18265;SDS011;9259;48.194;16.322;2022-11-03T13:09:38;8.73;;;3.08;;
18265;SDS011;9259;48.194;16.322;2022-11-03T13:12:07;12.48;;;3.58;;
18265;SDS011;9259;48.194;16.322;2022-11-03T13:14:56;10.65;;;3.40;;
18265;SDS011;9259;48.194;16.322;2022-11-03T13:17:24;7.53;;;3.67;;
18265;SDS011;9259;48.194;16.322;2022-11-03T13:19:53;11.20;;;3.80;;
18265;SDS011;9259;48.194;16.322;2022-11-03T13:22:21;14.82;;;3.63;;
18265;SDS011;9259;48.194;16.322;2022-11-03T13:24:50;8.00;;;3.60;;
18265;SDS011;9259;48.194;16.322;2022-11-03T13:27:18;9.18;;;3.35;;
18265;SDS011;9259;48.194;16.322;2022-11-03T13:29:46;9.93;;;3.47;;
18265;SDS011;9259;48.194;16.322;2022-11-03T13:32:14;10.75;;;3.55;;
18265;SDS011;9259;48.194;16.322;2022-11-03T13:34:42;7.88;;;2.50;;
18265;SDS011;9259;48.194;16.322;2022-11-03T13:37:11;9.27;;;2.92;;
18265;SDS011;9259;48.194;16.322;2022-11-03T13:39:39;10.35;;;3.38;;
18265;SDS011;9259;48.194;16.322;2022-11-03T13:42:07;10.68;;;3.58;;
18265;SDS011;9259;48.194;16.322;2022-11-03T13:44:35;12.15;;;3.60;;
18265;SDS011;9259;48.194;16.322;2022-11-03T13:47:03;7.25;;;3.03;;
18265;SDS011;9259;48.194;16.322;2022-11-03T13:49:31;12.45;;;3.75;;
18265;SDS011;9259;48.194;16.322;2022-11-03T13:52:00;12.55;;;3.28;;
18265;SDS011;9259;48.194;16.322;2022-11-03T13:54:29;8.52;;;3.03;;
18265;SDS011;9259;48.194;16.322;2022-11-03T13:56:58;9.40;;;3.10;;
18265;SDS011;9259;48.194;16.322;2022-11-03T13:59:26;5.65;;;2.13;;
18265;SDS011;9259;48.194;16.322;2022-11-03T14:01:54;7.95;;;3.03;;
18265;SDS011;9259;48.194;16.322;2022-11-03T14:04:22;10.73;;;3.13;;
18265;SDS011;9259;48.194;16.322;2022-11-03T14:06:50;9.77;;;2.75;;
18265;SDS011;9259;48.194;16.322;2022-11-03T14:09:18;10.25;;;3.70;;
18265;SDS011;9259;48.194;16.322;2022-11-03T14:11:47;11.13;;;3.17;;
18265;SDS011;9259;48.194;16.322;2022-11-03T14:14:33;9.75;;;3.28;;
18265;SDS011;9259;48.194;16.322;2022-11-03T14:17:01;11.70;;;3.50;;
18265;SDS011;9259;48.194;16.322;2022-11-03T14:19:29;8.70;;;3.70;;
18265;SDS011;9259;48.194;16.322;2022-11-03T14:21:57;21.67;;;3.10;;
18265;SDS011;9259;48.194;16.322;2022-11-03T14:24:25;10.15;;;3.03;;
18265;SDS011;9259;48.194;16.322;2022-11-03T14:26:54;9.18;;;3.40;;
18265;SDS011;9259;48.194;16.322;2022-11-03T14:29:22;8.02;;;3.10;;
18265;SDS011;9259;48.194;16.322;2022-11-03T14:31:51;12.52;;;3.40;;
18265;SDS011;9259;48.194;16.322;2022-11-03T14:34:20;10.40;;;3.50;;
18265;SDS011;9259;48.194;16.322;2022-11-03T14:36:48;11.35;;;3.65;;
18265;SDS011;9259;48.194;16.322;2022-11-03T14:39:16;8.38;;;3.25;;
18265;SDS011;9259;48.194;16.322;2022-11-03T14:41:44;7.03;;;2.92;;
18265;SDS011;9259;48.194;16.322;2022-11-03T14:44:30;8.30;;;3.22;;
18265;SDS011;9259;48.194;16.322;2022-11-03T14:46:59;12.45;;;3.85;;
18265;SDS011;9259;48.194;16.322;2022-11-03T14:49:27;11.10;;;3.08;;
18265;SDS011;9259;48.194;16.322;2022-11-03T14:51:56;8.40;;;3.55;;
18265;SDS011;9259;48.194;16.322;2022-11-03T14:54:26;15.50;;;3.95;;
18265;SDS011;9259;48.194;16.322;2022-11-03T14:56:55;8.85;;;3.58;;
18265;SDS011;9259;48.194;16.322;2022-11-03T14:59:23;8.38;;;3.40;;
18265;SDS011;9259;48.194;16.322;2022-11-03T15:01:53;10.18;;;3.88;;
18265;SDS011;9259;48.194;16.322;2022-11-03T15:04:22;13.38;;;3.88;;
18265;SDS011;9259;48.194;16.322;2022-11-03T15:06:50;10.23;;;3.55;;
18265;SDS011;9259;48.194;16.322;2022-11-03T15:09:19;10.98;;;3.88;;
18265;SDS011;9259;48.194;16.322;2022-11-03T15:11:47;9.98;;;3.70;;
18265;SDS011;9259;48.194;16.322;2022-11-03T15:14:15;13.65;;;4.00;;
18265;SDS011;9259;48.194;16.322;2022-11-03T15:16:43;8.70;;;4.10;;
18265;SDS011;9259;48.194;16.322;2022-11-03T15:19:14;16.02;;;3.95;;
18265;SDS011;9259;48.194;16.322;2022-11-03T15:21:42;13.95;;;4.47;;
18265;SDS011;9259;48.194;16.322;2022-11-03T15:24:10;12.32;;;3.83;;
18265;SDS011;9259;48.194;16.322;2022-11-03T15:26:38;12.15;;;4.40;;